Terminal Aerodrome Forecast
Issued by NWS

Home | Current Version | Previous Version | Text Only | Print | Product List | Glossary On
Versions: 1 2 3 4 5 6 7 8 9 10 11 12 13 14
806
FTUS43 KOAX 272104 AAA
TAFBFF
TAF AMD
KBFF 272104Z 2721/2818 18012KT P6SM VCTS SCT070CB BKN120
      TEMPO 2721/2723 VRB25G35KT -TSRA SCT050CB BKN100
     FM280200 32012KT P6SM SCT150=

USA.gov is the U.S. government's official web portal to all federal, state and local government web resources and services.